Aeroporto :
LOGIN :

Iscrizione | Disclaimer

   EN    FR    IT 

 










Sommario :    VFR   VFR Marginale   IFR   IFR Intensivo   IFR Molto Intensivo
Visibilità : 
Base nubi : 
>= 8 km
>= 3000ft
5 / 8 km
1000 / 3000 ft
1500m / 5 km
500 / 1000 ft
800 / 1500m
200 / 500 ft
< 800m
< 200 ft
Simboli :   Temporali  Nebbia  Neve Forte  Precipitazioni Forti  Vento > 20 kt
SIGMETs :   Varie  Temporali  Ghiacco  Turbolenza  Onda orograficha  Ceneri Vulcaniche







- Altitudine del aeroporto : 117 ft
- Codice IATA : NWI
- Carte del aeroporto


EGSH - Norwich

ULTIMO METAR :
  • 192350Z AUTO VRB03KT 5000 BR OVC003/// 10/10 Q1011

METARs OBSOLETI :
  • 192320Z AUTO 33004KT 290V010 4400 BR OVC003/// 10/10 Q1011
  • 192250Z AUTO 34004KT 300V020 3700 -RA OVC003/// 10/10 Q1011 RERA REDZ
  • 192220Z AUTO VRB03KT 4100 -DZ OVC003/// 10/10 Q1011 REDZ
  • 192150Z VRB03KT 4500 BR BKN003 10/10 Q1011 TEMPO 1200 BKN001
  • 192120Z 35004KT 320V030 4000 BR BKN003 10/10 Q1011 TEMPO 1200 BKN001

Previsioni scadute.
ATIS : +44 1603 420 640
Nessun NOTAM noto per questo aeroporto.



MetMap, La meteo Aeronautica in un colpo d'occhio ! - Copyright ORBIFLY Dicembre 2007 - Disclaimer

ORBIFLY MET'MAP TEAM :

Programmazione e sviluppo : Alexandra Zaïnal
Concezione e sviluppo : Baudouin d'Aumeries
Co-Programmazione e sviluppo : Marc-Olivier Méhu
Supporto tecnico e logistico : Manuel Goepfert
Aiuto per la traduzione : Arnaldo La Scala

Contatto : metmap@orbifly.com




FONTI E CREDITI :

   NOAA